createdAt,value
2023-04-05T00:02:14.221Z,94458.25
2023-04-05T00:04:50.558Z,94457.16
2023-04-05T00:07:19.345Z,94454.31
2023-04-05T00:09:46.625Z,94448.41
2023-04-05T00:12:13.743Z,94441.84
2023-04-05T00:14:40.875Z,94446.94
2023-04-05T00:17:09.501Z,94445.06
2023-04-05T00:19:39.443Z,94439.94
2023-04-05T00:22:06.517Z,94445.34
2023-04-05T00:24:34.100Z,94441.47
2023-04-05T00:27:01.426Z,94444.56
2023-04-05T00:29:28.596Z,94436.63
2023-04-05T00:31:56.263Z,94413.50
2023-04-05T00:34:23.107Z,94429.25
2023-04-05T00:36:49.945Z,94435.69
2023-04-05T00:39:16.795Z,94436.63
2023-04-05T00:41:46.392Z,94428.84
2023-04-05T00:44:14.469Z,94423.06
2023-04-05T00:46:42.330Z,94427.22
2023-04-05T00:49:09.181Z,94429.78
2023-04-05T00:51:38.169Z,94425.34
2023-04-05T00:54:05.027Z,94425.47
2023-04-05T00:56:32.340Z,94418.53
2023-04-05T00:58:59.179Z,94423.34
2023-04-05T01:01:26.605Z,94422.84
2023-04-05T01:03:56.061Z,94424.88
2023-04-05T01:06:49.269Z,94418.84
2023-04-05T01:09:29.702Z,94409.56
2023-04-05T01:11:59.262Z,94410.22
2023-04-05T01:14:26.013Z,94419.63
2023-04-05T01:16:58.202Z,94415.03
2023-04-05T01:19:29.014Z,94396.19
2023-04-05T01:21:58.518Z,94400.00
2023-04-05T01:24:46.795Z,94408.28
2023-04-05T01:27:43.601Z,94399.81
2023-04-05T01:30:18.344Z,94398.94
2023-04-05T01:33:07.339Z,94401.44
2023-04-05T01:35:35.030Z,94400.31
2023-04-05T01:38:03.941Z,94397.94
2023-04-05T01:40:31.986Z,94399.44
2023-04-05T01:43:02.352Z,94396.38
2023-04-05T01:45:29.495Z,94402.16
2023-04-05T01:47:56.264Z,94404.28
2023-04-05T01:50:22.995Z,94399.16
2023-04-05T01:52:49.661Z,94394.50
2023-04-05T01:55:16.622Z,94393.19
2023-04-05T01:57:43.391Z,94388.44
2023-04-05T02:00:10.814Z,94389.69
2023-04-05T02:02:37.538Z,94391.22
2023-04-05T02:05:04.462Z,94390.56
2023-04-05T02:07:31.303Z,94395.00
2023-04-05T02:09:57.985Z,94394.06
2023-04-05T02:12:24.737Z,94388.44
2023-04-05T02:14:52.707Z,94389.53
2023-04-05T02:17:19.873Z,94388.59
2023-04-05T02:19:47.109Z,94385.38
2023-04-05T02:22:14.093Z,94376.69
2023-04-05T02:24:41.455Z,94385.81
2023-04-05T02:27:08.281Z,94381.97
2023-04-05T02:29:35.093Z,94381.97
2023-04-05T02:32:02.278Z,94376.41
2023-04-05T02:34:29.163Z,94379.69
2023-04-05T02:36:56.160Z,94369.94
2023-04-05T02:39:23.122Z,94370.34
2023-04-05T02:41:49.894Z,94372.56
2023-04-05T02:44:16.616Z,94373.34
2023-04-05T02:46:43.337Z,94380.13
2023-04-05T02:49:10.046Z,94376.63
2023-04-05T02:51:36.774Z,94368.06
2023-04-05T02:54:03.914Z,94369.41
2023-04-05T02:56:30.713Z,94362.97
2023-04-05T02:58:57.475Z,94372.88
2023-04-05T03:01:24.725Z,94364.22
2023-04-05T03:03:51.490Z,94372.69
2023-04-05T03:06:18.643Z,94370.41
2023-04-05T03:08:46.646Z,94368.66
2023-04-05T03:11:13.897Z,94367.91
2023-04-05T03:13:41.364Z,94361.56
2023-04-05T03:16:08.378Z,94362.63
2023-04-05T03:18:35.133Z,94367.34
2023-04-05T03:21:01.980Z,94356.94
2023-04-05T03:23:29.868Z,94357.63
2023-04-05T03:26:00.142Z,94365.38
2023-04-05T03:28:27.081Z,94352.94
2023-04-05T03:30:54.208Z,94364.31
2023-04-05T03:33:21.208Z,94358.19
2023-04-05T03:35:48.584Z,94362.78
2023-04-05T03:38:15.881Z,94360.13
2023-04-05T03:40:42.718Z,94352.47
2023-04-05T03:43:09.557Z,94355.81
2023-04-05T03:45:36.283Z,94352.34
2023-04-05T03:48:03.373Z,94353.66
2023-04-05T03:50:30.645Z,94353.00
2023-04-05T03:52:57.477Z,94359.16
2023-04-05T03:55:24.267Z,94355.56
2023-04-05T03:57:51.265Z,94354.63
2023-04-05T04:00:18.119Z,94357.47
2023-04-05T04:02:46.592Z,94356.69
2023-04-05T04:05:14.264Z,94345.31
2023-04-05T04:07:42.124Z,94352.19
2023-04-05T04:10:10.930Z,94349.47
2023-04-05T04:12:38.346Z,94348.53
2023-04-05T04:15:05.612Z,94341.47
2023-04-05T04:17:34.904Z,94346.69
2023-04-05T04:20:02.060Z,94349.72
2023-04-05T04:22:33.151Z,94352.94
2023-04-05T04:25:04.806Z,94348.13
2023-04-05T04:27:31.974Z,94350.38
2023-04-05T04:30:01.973Z,94351.28
2023-04-05T04:32:47.808Z,94344.09
2023-04-05T04:35:18.500Z,94344.69
2023-04-05T04:37:53.326Z,94348.03
2023-04-05T04:40:21.289Z,94351.09
2023-04-05T04:42:47.878Z,94345.22
2023-04-05T04:45:18.927Z,94338.53
2023-04-05T04:47:47.189Z,94350.03
2023-04-05T04:50:14.625Z,94347.19
2023-04-05T04:52:41.283Z,94350.56
2023-04-05T04:55:14.365Z,94348.56
2023-04-05T04:57:41.910Z,94351.38
2023-04-05T05:00:13.265Z,94349.94
2023-04-05T05:02:40.700Z,94341.66
2023-04-05T05:05:08.554Z,94349.00
2023-04-05T05:07:35.896Z,94343.13
2023-04-05T05:10:03.494Z,94348.59
2023-04-05T05:12:31.635Z,94345.53
2023-04-05T05:14:58.486Z,94361.44
2023-04-05T05:17:25.218Z,94349.22
2023-04-05T05:19:52.705Z,94341.59
2023-04-05T05:22:19.925Z,94353.38
2023-04-05T05:24:46.787Z,94354.81
2023-04-05T05:27:13.762Z,94356.16
2023-04-05T05:29:40.579Z,94357.09
2023-04-05T05:32:07.746Z,94361.38
2023-04-05T05:34:34.852Z,94355.59
2023-04-05T05:37:01.754Z,94354.63
2023-04-05T05:39:28.585Z,94351.66
2023-04-05T05:41:55.536Z,94359.34
2023-04-05T05:44:22.314Z,94364.53
2023-04-05T05:46:49.068Z,94368.63
2023-04-05T05:49:17.022Z,94369.13
2023-04-05T05:51:43.734Z,94363.56
2023-04-05T05:54:10.505Z,94366.56
2023-04-05T05:56:37.283Z,94362.47
2023-04-05T05:59:04.217Z,94354.78
2023-04-05T06:01:31.015Z,94367.56
2023-04-05T06:03:57.757Z,94368.84
2023-04-05T06:06:24.675Z,94367.22
2023-04-05T06:08:51.569Z,94362.16
2023-04-05T06:11:19.748Z,94367.56
2023-04-05T06:13:46.569Z,94365.69
2023-04-05T06:16:13.426Z,94368.78
2023-04-05T06:18:40.434Z,94363.44
2023-04-05T06:21:07.219Z,94356.25
2023-04-05T06:23:34.110Z,94364.03
2023-04-05T06:26:01.226Z,94365.63
2023-04-05T06:28:28.147Z,94363.44
2023-04-05T06:30:56.367Z,94369.97
2023-04-05T06:33:23.125Z,94363.44
2023-04-05T06:35:49.876Z,94366.00
2023-04-05T06:38:16.815Z,94356.53
2023-04-05T06:40:43.698Z,94359.91
2023-04-05T06:43:13.257Z,94357.22
2023-04-05T06:45:40.257Z,94363.56
2023-04-05T06:48:08.417Z,94357.72
2023-04-05T06:50:35.204Z,94354.91
2023-04-05T06:53:03.282Z,94360.00
2023-04-05T06:55:29.926Z,94350.81
2023-04-05T06:57:56.715Z,94354.72
2023-04-05T07:00:23.904Z,94364.19
2023-04-05T07:02:50.881Z,94354.97
2023-04-05T07:05:17.915Z,94350.78
2023-04-05T07:07:45.647Z,94354.97
2023-04-05T07:10:12.482Z,94349.28
2023-04-05T07:12:40.142Z,94341.41
2023-04-05T07:15:07.627Z,94345.72
2023-04-05T07:17:34.371Z,94346.47
2023-04-05T07:20:01.286Z,94342.97
2023-04-05T07:22:28.060Z,94346.09
2023-04-05T07:24:55.670Z,94345.41
2023-04-05T07:27:22.390Z,94341.31
2023-04-05T07:29:49.351Z,94344.13
2023-04-05T07:32:16.287Z,94344.44
2023-04-05T07:34:43.029Z,94347.41
2023-04-05T07:37:09.836Z,94340.69
2023-04-05T07:39:36.574Z,94332.84
2023-04-05T07:42:03.340Z,94339.69
2023-04-05T07:44:30.008Z,94347.31
2023-04-05T07:46:56.861Z,94357.69
2023-04-05T07:49:27.785Z,94336.47
2023-04-05T07:51:56.521Z,94344.00
2023-04-05T07:54:24.100Z,94340.41
2023-04-05T07:56:51.406Z,94329.84
2023-04-05T07:59:18.300Z,94336.69
2023-04-05T08:01:45.034Z,94337.34
2023-04-05T08:04:12.747Z,94340.34
2023-04-05T08:06:39.464Z,94331.38
2023-04-05T08:09:06.892Z,94342.44
2023-04-05T08:11:33.857Z,94334.50
2023-04-05T08:14:00.758Z,94330.22
2023-04-05T08:16:28.061Z,94342.06
2023-04-05T08:18:54.746Z,94335.59
2023-04-05T08:21:22.290Z,94334.16
2023-04-05T08:23:50.270Z,94334.03
2023-04-05T08:26:17.404Z,94338.91
2023-04-05T08:28:44.190Z,94338.31
2023-04-05T08:31:13.432Z,94319.69
2023-04-05T08:33:40.486Z,94325.59
2023-04-05T08:36:08.784Z,94332.31
2023-04-05T08:38:35.854Z,94335.91
2023-04-05T08:41:23.870Z,94334.22
2023-04-05T08:43:59.088Z,94333.66
2023-04-05T08:46:26.285Z,94320.28
2023-04-05T08:48:53.266Z,94330.22
2023-04-05T08:51:23.143Z,94328.66
2023-04-05T08:53:50.691Z,94323.66
2023-04-05T08:56:22.054Z,94327.53
2023-04-05T08:58:57.592Z,94330.66
2023-04-05T09:01:24.884Z,94327.75
2023-04-05T09:03:53.410Z,94335.97
2023-04-05T09:06:20.967Z,94317.78
2023-04-05T09:08:48.812Z,94328.16
2023-04-05T09:11:17.004Z,94324.53
2023-04-05T09:13:43.698Z,94326.19
2023-04-05T09:16:10.605Z,94326.66
2023-04-05T09:18:37.457Z,94324.25
2023-04-05T09:21:07.239Z,94327.63
2023-04-05T09:23:37.545Z,94326.28
2023-04-05T09:26:21.731Z,94319.28
2023-04-05T09:28:48.578Z,94309.56
2023-04-05T09:31:36.474Z,94311.31
2023-04-05T09:34:06.545Z,94303.47
2023-04-05T09:36:36.407Z,94306.56
2023-04-05T09:39:07.004Z,94309.66
2023-04-05T09:41:34.817Z,94306.53
2023-04-05T09:44:02.218Z,94297.50
2023-04-05T09:46:31.619Z,94309.16
2023-04-05T09:48:58.593Z,94301.50
2023-04-05T09:51:32.690Z,94298.69
2023-04-05T09:54:05.582Z,94296.13
2023-04-05T09:56:37.409Z,94287.78
2023-04-05T09:59:11.778Z,94305.09
2023-04-05T10:01:41.534Z,94293.66
2023-04-05T10:04:08.782Z,94292.03
2023-04-05T10:06:40.719Z,94281.81
2023-04-05T10:09:09.202Z,94289.75
2023-04-05T10:11:37.265Z,94277.59
2023-04-05T10:14:05.767Z,94281.31
2023-04-05T10:16:46.491Z,94270.16
2023-04-05T10:19:52.114Z,94274.19
2023-04-05T10:22:25.068Z,94271.16
2023-04-05T10:25:00.272Z,94262.16
2023-04-05T10:27:45.883Z,94264.50
2023-04-05T10:30:13.128Z,94273.63
2023-04-05T10:32:58.876Z,94264.66
2023-04-05T10:35:36.280Z,94267.66
2023-04-05T10:38:08.968Z,94269.63
2023-04-05T10:40:36.527Z,94263.59
2023-04-05T10:43:04.372Z,94249.94
2023-04-05T10:45:33.206Z,94254.13
2023-04-05T10:48:16.392Z,94259.28
2023-04-05T10:50:44.765Z,94252.53
2023-04-05T10:53:11.786Z,94254.53
2023-04-05T10:55:38.554Z,94247.56
2023-04-05T10:58:05.789Z,94244.38
2023-04-05T11:00:33.584Z,94242.97
2023-04-05T11:03:00.488Z,94240.00
2023-04-05T11:05:37.864Z,94244.59
2023-04-05T11:08:07.001Z,94239.28
2023-04-05T11:10:37.771Z,94239.41
2023-04-05T11:13:08.941Z,94235.38
2023-04-05T11:15:36.672Z,94243.19
2023-04-05T11:18:09.631Z,94244.56
2023-04-05T11:20:55.931Z,94240.94
2023-04-05T11:23:24.876Z,94230.19
2023-04-05T11:25:59.953Z,94229.84
2023-04-05T11:28:31.995Z,94234.44
2023-04-05T11:31:13.080Z,94229.63
2023-04-05T11:33:55.416Z,94226.69
2023-04-05T11:36:37.897Z,94226.31
2023-04-05T11:39:19.885Z,94216.28
2023-04-05T11:42:06.642Z,94213.53
2023-04-05T11:44:48.138Z,94208.19
2023-04-05T11:47:21.508Z,94213.75
2023-04-05T11:49:52.016Z,94207.19
2023-04-05T11:52:20.905Z,94207.59
2023-04-05T11:54:49.101Z,94203.59
2023-04-05T11:57:21.544Z,94200.84
2023-04-05T11:59:51.666Z,94198.25
2023-04-05T12:02:18.445Z,94197.41
2023-04-05T12:04:45.195Z,94194.03
2023-04-05T12:07:19.943Z,94193.66
2023-04-05T12:10:12.110Z,94190.28
2023-04-05T12:12:40.721Z,94178.81
2023-04-05T12:15:09.586Z,94186.69
2023-04-05T12:17:43.001Z,94181.34
2023-04-05T12:20:11.718Z,94179.31
2023-04-05T12:22:39.495Z,94183.69
2023-04-05T12:25:06.717Z,94177.16
2023-04-05T12:27:33.503Z,94168.84
2023-04-05T12:30:15.262Z,94164.63
2023-04-05T12:32:55.817Z,94173.41
2023-04-05T12:35:32.316Z,94172.56
2023-04-05T12:37:59.624Z,94165.13
2023-04-05T12:40:30.431Z,94168.00
2023-04-05T12:43:20.080Z,94166.53
2023-04-05T12:45:50.484Z,94161.81
2023-04-05T12:48:22.764Z,94146.06
2023-04-05T12:50:55.186Z,94147.53
2023-04-05T12:53:24.263Z,94147.78
2023-04-05T12:55:53.056Z,94147.56
2023-04-05T12:58:24.358Z,94137.81
2023-04-05T13:00:51.118Z,94136.31
2023-04-05T13:03:21.237Z,94129.59
2023-04-05T13:05:51.646Z,94133.66
2023-04-05T13:08:18.874Z,94132.25
2023-04-05T13:10:46.789Z,94128.47
2023-04-05T13:13:14.639Z,94127.38
2023-04-05T13:15:41.633Z,94118.13
2023-04-05T13:18:08.914Z,94122.88
2023-04-05T13:20:36.150Z,94125.66
2023-04-05T13:23:03.012Z,94121.25
2023-04-05T13:25:31.017Z,94116.63
2023-04-05T13:27:57.887Z,94116.41
2023-04-05T13:30:24.593Z,94110.84
2023-04-05T13:32:51.371Z,94119.13
2023-04-05T13:35:18.139Z,94111.13
2023-04-05T13:37:44.916Z,94113.19
2023-04-05T13:40:11.930Z,94105.09
2023-04-05T13:42:38.734Z,94113.28
2023-04-05T13:45:06.145Z,94103.16
2023-04-05T13:47:32.926Z,94099.91
2023-04-05T13:49:59.758Z,94102.19
2023-04-05T13:52:26.916Z,94106.94
2023-04-05T13:55:02.520Z,94108.25
2023-04-05T13:57:30.970Z,94102.00
2023-04-05T13:59:57.765Z,94102.34
2023-04-05T14:02:26.175Z,94099.50
2023-04-05T14:04:55.993Z,94109.16
2023-04-05T14:07:23.858Z,94103.44
2023-04-05T14:09:50.596Z,94103.94
2023-04-05T14:12:18.313Z,94099.50
2023-04-05T14:14:45.385Z,94101.34
2023-04-05T14:17:12.797Z,94098.84
2023-04-05T14:19:39.855Z,94098.91
2023-04-05T14:22:06.847Z,94106.06
2023-04-05T14:24:34.356Z,94096.13
2023-04-05T14:27:01.398Z,94087.41
2023-04-05T14:29:28.494Z,94092.72
2023-04-05T14:31:56.591Z,94090.25
2023-04-05T14:34:23.437Z,94093.19
2023-04-05T14:36:50.467Z,94088.75
2023-04-05T14:39:17.515Z,94085.78
2023-04-05T14:41:50.170Z,94083.38
2023-04-05T14:44:17.065Z,94085.38
2023-04-05T14:46:44.087Z,94092.47
2023-04-05T14:49:11.076Z,94085.66
2023-04-05T14:51:37.856Z,94082.31
2023-04-05T14:54:04.987Z,94081.38
2023-04-05T14:56:31.752Z,94081.38
2023-04-05T14:58:58.857Z,94091.53
2023-04-05T15:01:25.990Z,94086.81
2023-04-05T15:03:53.831Z,94078.59
2023-04-05T15:06:20.975Z,94089.38
2023-04-05T15:08:47.753Z,94086.88
2023-04-05T15:11:14.630Z,94084.09
2023-04-05T15:13:41.514Z,94081.69
2023-04-05T15:16:08.469Z,94087.06
2023-04-05T15:18:35.246Z,94077.47
2023-04-05T15:21:02.203Z,94075.38
2023-04-05T15:23:28.936Z,94088.28
2023-04-05T15:25:55.952Z,94082.69
2023-04-05T15:28:22.783Z,94081.91
2023-04-05T15:30:51.304Z,94090.84
2023-04-05T15:33:18.117Z,94083.63
2023-04-05T15:35:44.912Z,94078.81
2023-04-05T15:38:11.887Z,94084.63
2023-04-05T15:40:39.938Z,94081.91
2023-04-05T15:43:06.885Z,94085.28
2023-04-05T15:45:33.642Z,94087.09
2023-04-05T15:48:00.576Z,94089.91
2023-04-05T15:50:27.356Z,94081.94
2023-04-05T15:52:54.135Z,94087.91
2023-04-05T15:55:21.038Z,94084.50
2023-04-05T15:57:49.580Z,94091.28
2023-04-05T16:00:16.785Z,94092.47
2023-04-05T16:02:43.728Z,94091.25
2023-04-05T16:05:10.694Z,94088.06
2023-04-05T16:07:37.493Z,94101.56
2023-04-05T16:10:05.003Z,94089.16
2023-04-05T16:12:31.795Z,94093.94
2023-04-05T16:14:58.702Z,94084.22
2023-04-05T16:17:25.896Z,94096.75
2023-04-05T16:19:55.067Z,94098.69
2023-04-05T16:22:23.354Z,94096.47
2023-04-05T16:24:50.161Z,94101.03
2023-04-05T16:27:16.961Z,94091.31
2023-04-05T16:29:43.935Z,94094.75
2023-04-05T16:32:10.994Z,94089.34
2023-04-05T16:34:37.775Z,94088.13
2023-04-05T16:37:04.612Z,94101.81
2023-04-05T16:39:31.587Z,94104.22
2023-04-05T16:41:58.329Z,94100.72
2023-04-05T16:44:25.157Z,94104.28
2023-04-05T16:46:52.436Z,94099.69
2023-04-05T16:49:19.167Z,94101.81
2023-04-05T16:51:45.958Z,94109.53
2023-04-05T16:54:12.761Z,94110.75
2023-04-05T16:56:39.601Z,94111.69
2023-04-05T16:59:07.961Z,94121.81
2023-04-05T17:01:35.677Z,94111.41
2023-04-05T17:04:02.468Z,94117.81
2023-04-05T17:06:29.219Z,94123.72
2023-04-05T17:08:56.039Z,94122.41
2023-04-05T17:11:22.918Z,94123.16
2023-04-05T17:13:50.015Z,94120.41
2023-04-05T17:16:16.935Z,94131.56
2023-04-05T17:18:43.813Z,94138.34
2023-04-05T17:21:12.412Z,94131.63
2023-04-05T17:23:40.030Z,94135.03
2023-04-05T17:26:06.776Z,94140.22
2023-04-05T17:28:34.865Z,94135.31
2023-04-05T17:31:02.846Z,94147.19
2023-04-05T17:33:29.851Z,94146.44
2023-04-05T17:35:58.274Z,94143.16
2023-04-05T17:38:26.105Z,94145.84
2023-04-05T17:40:53.024Z,94146.19
2023-04-05T17:43:20.064Z,94157.69
2023-04-05T17:45:47.082Z,94163.72
2023-04-05T17:48:13.978Z,94158.78
2023-04-05T17:50:41.240Z,94159.63
2023-04-05T17:53:08.242Z,94171.84
2023-04-05T17:55:35.088Z,94182.56
2023-04-05T17:58:01.967Z,94176.06
2023-04-05T18:00:28.839Z,94176.84
2023-04-05T18:02:55.609Z,94184.22
2023-04-05T18:05:22.777Z,94181.47
2023-04-05T18:07:49.509Z,94187.56
2023-04-05T18:10:16.716Z,94186.75
2023-04-05T18:12:43.727Z,94195.50
2023-04-05T18:15:10.757Z,94200.63
2023-04-05T18:17:38.067Z,94207.09
2023-04-05T18:20:05.720Z,94221.44
2023-04-05T18:22:32.801Z,94208.97
2023-04-05T18:25:00.055Z,94211.41
2023-04-05T18:27:27.400Z,94216.56
2023-04-05T18:29:54.199Z,94223.88
2023-04-05T18:32:21.213Z,94202.03
2023-04-05T18:34:48.116Z,94225.25
2023-04-05T18:37:14.776Z,94226.41
2023-04-05T18:39:41.566Z,94240.78
2023-04-05T18:42:08.715Z,94244.38
2023-04-05T18:44:35.463Z,94240.06
2023-04-05T18:47:02.270Z,94244.16
2023-04-05T18:49:29.011Z,94252.13
2023-04-05T18:51:58.820Z,94251.59
2023-04-05T18:54:25.776Z,94256.97
2023-04-05T18:56:53.174Z,94271.91
2023-04-05T18:59:20.250Z,94265.72
2023-04-05T19:01:47.770Z,94266.88
2023-04-05T19:04:17.426Z,94277.91
2023-04-05T19:06:44.367Z,94277.59
2023-04-05T19:09:12.014Z,94279.50
2023-04-05T19:11:39.615Z,94275.34
2023-04-05T19:14:07.257Z,94286.84
2023-04-05T19:16:35.093Z,94285.94
2023-04-05T19:19:03.762Z,94284.66
2023-04-05T19:21:31.497Z,94286.28
2023-04-05T19:23:58.260Z,94290.28
2023-04-05T19:26:25.026Z,94296.53
2023-04-05T19:28:52.656Z,94293.97
2023-04-05T19:31:19.459Z,94301.34
2023-04-05T19:33:46.440Z,94301.19
2023-04-05T19:36:13.655Z,94296.88
2023-04-05T19:38:40.665Z,94291.59
2023-04-05T19:41:07.386Z,94294.94
2023-04-05T19:43:36.676Z,94296.22
2023-04-05T19:46:08.485Z,94303.59
2023-04-05T19:48:39.050Z,94308.69
2023-04-05T19:51:07.660Z,94309.81
2023-04-05T19:53:39.568Z,94307.41
2023-04-05T19:56:12.801Z,94309.63
2023-04-05T19:58:39.863Z,94304.50
2023-04-05T20:01:07.213Z,94313.28
2023-04-05T20:03:39.106Z,94311.38
2023-04-05T20:06:09.722Z,94315.69
2023-04-05T20:08:41.809Z,94318.22
2023-04-05T20:11:13.799Z,94313.25
2023-04-05T20:13:58.114Z,94304.16
2023-04-05T20:16:36.141Z,94308.28
2023-04-05T20:19:05.186Z,94315.34
2023-04-05T20:21:32.662Z,94307.69
2023-04-05T20:24:00.634Z,94313.91
2023-04-05T20:26:31.096Z,94315.97
2023-04-05T20:28:59.942Z,94311.94
2023-04-05T20:31:29.566Z,94306.69
2023-04-05T20:33:56.783Z,94306.84
2023-04-05T20:36:37.191Z,94304.59
2023-04-05T20:39:06.760Z,94303.97
2023-04-05T20:41:33.946Z,94319.31
2023-04-05T20:44:00.893Z,94319.75
2023-04-05T20:46:28.342Z,94306.94
2023-04-05T20:48:57.302Z,94313.66
2023-04-05T20:51:24.417Z,94303.88
2023-04-05T20:53:51.197Z,94303.09
2023-04-05T20:56:18.095Z,94310.09
2023-04-05T20:58:44.926Z,94315.50
2023-04-05T21:01:11.830Z,94312.06
2023-04-05T21:03:41.684Z,94308.03
2023-04-05T21:06:09.714Z,94316.44
2023-04-05T21:08:37.558Z,94307.38
2023-04-05T21:11:04.869Z,94306.88
2023-04-05T21:13:31.689Z,94294.22
2023-04-05T21:15:58.701Z,94305.88
2023-04-05T21:18:25.753Z,94316.56
2023-04-05T21:20:53.513Z,94317.03
2023-04-05T21:23:27.039Z,94327.25
2023-04-05T21:25:57.269Z,94317.03
2023-04-05T21:28:24.840Z,94322.94
2023-04-05T21:30:51.944Z,94324.53
2023-04-05T21:33:19.335Z,94312.56
2023-04-05T21:35:46.112Z,94324.41
2023-04-05T21:38:15.082Z,94309.81
2023-04-05T21:40:44.363Z,94316.03
2023-04-05T21:43:11.918Z,94314.06
2023-04-05T21:45:38.641Z,94309.16
2023-04-05T21:48:05.830Z,94318.72
2023-04-05T21:50:32.691Z,94317.47
2023-04-05T21:52:59.304Z,94310.03
2023-04-05T21:55:26.055Z,94318.28
2023-04-05T21:57:52.738Z,94321.25
2023-04-05T22:00:19.925Z,94320.63
2023-04-05T22:02:47.086Z,94319.19
2023-04-05T22:05:25.629Z,94319.66
2023-04-05T22:07:56.670Z,94319.38
2023-04-05T22:10:24.834Z,94314.63
2023-04-05T22:12:51.847Z,94315.84
2023-04-05T22:15:18.488Z,94316.09
2023-04-05T22:17:45.176Z,94318.84
2023-04-05T22:20:12.375Z,94324.03
2023-04-05T22:22:39.043Z,94317.69
2023-04-05T22:25:06.467Z,94316.75
2023-04-05T22:27:33.095Z,94325.28
2023-04-05T22:30:00.507Z,94328.97
2023-04-05T22:32:27.289Z,94328.75
2023-04-05T22:34:53.921Z,94334.16
2023-04-05T22:37:20.548Z,94331.47
2023-04-05T22:39:47.220Z,94327.66
2023-04-05T22:42:13.978Z,94326.56
2023-04-05T22:44:40.589Z,94330.56
2023-04-05T22:47:07.330Z,94326.72
2023-04-05T22:49:34.046Z,94324.44
2023-04-05T22:52:01.657Z,94334.00
2023-04-05T22:54:28.346Z,94333.13
2023-04-05T22:56:55.060Z,94330.53
2023-04-05T22:59:23.065Z,94339.25
2023-04-05T23:01:50.140Z,94338.44
2023-04-05T23:04:17.031Z,94330.72
2023-04-05T23:06:43.835Z,94330.50
2023-04-05T23:09:10.878Z,94331.09
2023-04-05T23:11:37.769Z,94339.69
2023-04-05T23:14:04.562Z,94328.47
2023-04-05T23:16:31.421Z,94340.69
2023-04-05T23:18:58.208Z,94332.19
2023-04-05T23:21:25.112Z,94341.34
2023-04-05T23:23:51.878Z,94335.03
2023-04-05T23:26:18.775Z,94338.94
2023-04-05T23:28:45.686Z,94331.31
2023-04-05T23:31:12.666Z,94338.38
2023-04-05T23:33:39.525Z,94339.69
2023-04-05T23:36:06.912Z,94332.03
2023-04-05T23:38:33.712Z,94337.06
2023-04-05T23:41:00.661Z,94332.84
2023-04-05T23:43:27.514Z,94327.75
2023-04-05T23:45:54.362Z,94339.03
2023-04-05T23:48:21.175Z,94327.75
2023-04-05T23:50:48.541Z,94328.88
2023-04-05T23:53:15.652Z,94329.63
2023-04-05T23:55:42.430Z,94330.91
2023-04-05T23:58:09.298Z,94328.38
